Time;durP1;ratioP1;P1;durP2;ratioP2;P2;SDS_P1;SDS_P2;PMS_P1;PMS_P2;Temp;Humidity;BMP_temperature;BMP_pressure;BME280_temperature;BME280_humidity;BME280_pressure;Samples;Min_cycle;Max_cycle;Signal;HPM_P1;HPM_P2
2023/02/05 00:01:17;;;;;;;0.85;0.40;;;;;;;;;;4985031;28;20529;-58
2023/02/05 00:03:42;;;;;;;0.60;0.30;;;;;;;;;;4987729;28;20041;-60
2023/02/05 00:06:08;;;;;;;1.13;0.50;;;;;;;;;;4969899;28;20309;-61
2023/02/05 00:08:33;;;;;;;1.00;0.43;;;;;;;;;;4967905;28;20299;-61
2023/02/05 00:10:58;;;;;;;1.05;0.57;;;;;;;;;;4969435;28;20141;-61
2023/02/05 00:13:24;;;;;;;1.27;0.60;;;;;;;;;;4969146;28;20104;-61
2023/02/05 00:15:49;;;;;;;0.80;0.50;;;;;;;;;;4952986;28;20558;-56
2023/02/05 00:18:14;;;;;;;0.73;0.43;;;;;;;;;;4952718;28;20034;-60
2023/02/05 00:20:40;;;;;;;1.03;0.57;;;;;;;;;;4952844;28;20855;-60
2023/02/05 00:23:05;;;;;;;0.85;0.50;;;;;;;;;;4951836;28;20350;-59
2023/02/05 00:25:30;;;;;;;0.75;0.40;;;;;;;;;;4952702;28;20034;-60
2023/02/05 00:27:55;;;;;;;1.47;0.60;;;;;;;;;;4986812;28;20026;-58
2023/02/05 00:30:21;;;;;;;0.73;0.30;;;;;;;;;;4985870;28;20282;-60
2023/02/05 00:32:46;;;;;;;0.95;0.40;;;;;;;;;;4968505;28;20030;-59
2023/02/05 00:35:11;;;;;;;1.03;0.60;;;;;;;;;;4966603;28;20605;-61
2023/02/05 00:37:36;;;;;;;1.08;0.40;;;;;;;;;;4961872;28;20312;-59
2023/02/05 00:40:02;;;;;;;1.17;0.50;;;;;;;;;;4996833;28;20042;-60
2023/02/05 00:42:27;;;;;;;0.90;0.50;;;;;;;;;;4995500;28;20484;-58
2023/02/05 00:44:52;;;;;;;0.98;0.40;;;;;;;;;;5003968;28;20038;-57
2023/02/05 00:47:18;;;;;;;1.10;0.50;;;;;;;;;;5004860;28;20046;-60
2023/02/05 00:49:43;;;;;;;1.10;0.47;;;;;;;;;;5007386;28;20462;-61
2023/02/05 00:52:08;;;;;;;1.00;0.50;;;;;;;;;;4990516;28;20111;-56
2023/02/05 00:54:33;;;;;;;1.08;0.50;;;;;;;;;;4992833;28;20037;-60
2023/02/05 00:56:59;;;;;;;0.73;0.40;;;;;;;;;;4987781;28;20176;-58
2023/02/05 00:59:24;;;;;;;0.63;0.40;;;;;;;;;;4969559;28;20289;-58
2023/02/05 01:01:49;;;;;;;0.87;0.50;;;;;;;;;;5008114;28;20046;-60
2023/02/05 01:04:15;;;;;;;0.52;0.32;;;;;;;;;;4986821;28;20281;-59
2023/02/05 01:06:40;;;;;;;0.60;0.40;;;;;;;;;;5003913;28;20058;-55
2023/02/05 01:09:05;;;;;;;1.25;0.60;;;;;;;;;;4986337;28;20065;-61
2023/02/05 01:11:31;;;;;;;1.02;0.50;;;;;;;;;;4987745;28;20129;-60
2023/02/05 01:13:56;;;;;;;0.73;0.50;;;;;;;;;;4987499;28;20042;-59
2023/02/05 01:16:21;;;;;;;0.80;0.47;;;;;;;;;;5003996;28;20941;-59
2023/02/05 01:18:46;;;;;;;1.08;0.60;;;;;;;;;;4970925;28;20033;-59
2023/02/05 01:21:12;;;;;;;0.88;0.50;;;;;;;;;;4987515;28;20034;-60
2023/02/05 01:23:37;;;;;;;1.40;0.60;;;;;;;;;;4970757;28;20779;-60
2023/02/05 01:26:02;;;;;;;0.93;0.50;;;;;;;;;;4986779;28;20050;-61
2023/02/05 01:28:27;;;;;;;0.90;0.50;;;;;;;;;;4971387;28;20273;-60
2023/02/05 01:30:53;;;;;;;0.80;0.50;;;;;;;;;;4969658;28;21035;-59
2023/02/05 01:33:18;;;;;;;0.85;0.50;;;;;;;;;;5003608;28;20137;-61
2023/02/05 01:35:43;;;;;;;0.60;0.47;;;;;;;;;;4974514;28;20054;-60
2023/02/05 01:38:09;;;;;;;1.38;0.60;;;;;;;;;;4973301;28;20058;-55
2023/02/05 01:40:34;;;;;;;1.08;0.57;;;;;;;;;;4958825;28;20054;-59
2023/02/05 01:43:00;;;;;;;1.42;0.70;;;;;;;;;;4968717;28;20042;-58
2023/02/05 01:45:25;;;;;;;0.93;0.53;;;;;;;;;;4985499;28;20508;-61
2023/02/05 01:47:57;;;;;;;1.30;0.70;;;;;;;;;;4983881;28;20752;-58
2023/02/05 01:50:26;;;;;;;1.50;0.57;;;;;;;;;;4985786;28;20073;-59
2023/02/05 01:52:52;;;;;;;0.98;0.50;;;;;;;;;;4971272;28;20047;-58
2023/02/05 01:55:18;;;;;;;1.00;0.60;;;;;;;;;;4945382;28;20049;-59
2023/02/05 01:57:43;;;;;;;1.17;0.55;;;;;;;;;;4967369;28;20042;-59
2023/02/05 02:00:08;;;;;;;0.97;0.50;;;;;;;;;;4964480;28;20046;-59
2023/02/05 02:02:34;;;;;;;0.95;0.45;;;;;;;;;;4972100;28;20298;-59
2023/02/05 02:05:00;;;;;;;0.80;0.60;;;;;;;;;;4959701;28;20518;-56
2023/02/05 02:07:26;;;;;;;1.02;0.57;;;;;;;;;;4950757;28;20050;-58
2023/02/05 02:09:51;;;;;;;1.20;0.55;;;;;;;;;;4981920;28;20536;-59
2023/02/05 02:12:26;;;;;;;0.87;0.50;;;;;;;;;;4984066;28;20035;-60
2023/02/05 02:14:51;;;;;;;1.17;0.68;;;;;;;;;;4950721;28;20289;-61
2023/02/05 02:17:17;;;;;;;1.35;0.65;;;;;;;;;;4967224;28;20503;-58
2023/02/05 02:19:57;;;;;;;1.00;0.60;;;;;;;;;;4975353;28;20206;-58
2023/02/05 02:22:35;;;;;;;1.00;0.50;;;;;;;;;;4978556;28;20041;-55
2023/02/05 02:25:10;;;;;;;1.05;0.65;;;;;;;;;;5006887;28;20030;-61
2023/02/05 02:27:35;;;;;;;1.13;0.60;;;;;;;;;;4964592;28;20542;-56
2023/02/05 02:30:06;;;;;;;1.03;0.50;;;;;;;;;;4965551;28;20129;-62
2023/02/05 02:32:34;;;;;;;0.98;0.52;;;;;;;;;;4982259;28;20737;-61
2023/02/05 02:35:00;;;;;;;0.70;0.40;;;;;;;;;;4984435;28;20117;-58
2023/02/05 02:37:54;;;;;;;1.05;0.50;;;;;;;;;;4965691;28;20113;-59
2023/02/05 02:40:21;;;;;;;0.90;0.50;;;;;;;;;;4908760;28;20044;-59
2023/02/05 02:42:47;;;;;;;1.30;0.50;;;;;;;;;;4978883;28;20034;-60
2023/02/05 02:45:13;;;;;;;1.50;0.60;;;;;;;;;;4937016;28;20128;-59
2023/02/05 02:47:44;;;;;;;1.45;0.70;;;;;;;;;;4965617;28;20098;-59
2023/02/05 02:50:21;;;;;;;1.10;0.50;;;;;;;;;;4955409;28;20413;-58
2023/02/05 02:52:46;;;;;;;0.55;0.40;;;;;;;;;;4970771;28;20050;-58
2023/02/05 02:55:11;;;;;;;1.17;0.60;;;;;;;;;;4988631;28;20521;-59
2023/02/05 02:57:37;;;;;;;0.85;0.52;;;;;;;;;;4975826;28;20611;-59
2023/02/05 03:00:04;;;;;;;1.10;0.50;;;;;;;;;;4953081;28;20481;-59
2023/02/05 03:02:30;;;;;;;1.13;0.68;;;;;;;;;;4981903;28;20069;-59
2023/02/05 03:04:56;;;;;;;0.57;0.43;;;;;;;;;;4950584;28;20077;-60
2023/02/05 03:07:28;;;;;;;1.05;0.60;;;;;;;;;;4984232;28;20473;-57
2023/02/05 03:09:53;;;;;;;0.75;0.50;;;;;;;;;;4949034;28;20188;-58
2023/02/05 03:12:19;;;;;;;1.00;0.60;;;;;;;;;;4965946;28;20121;-57
2023/02/05 03:14:44;;;;;;;0.80;0.55;;;;;;;;;;4981919;28;20278;-60
2023/02/05 03:17:17;;;;;;;1.13;0.70;;;;;;;;;;4966495;28;20065;-59
2023/02/05 03:19:42;;;;;;;1.10;0.60;;;;;;;;;;4965710;28;20369;-59
2023/02/05 03:22:07;;;;;;;0.83;0.40;;;;;;;;;;4965783;28;20126;-59
2023/02/05 03:24:33;;;;;;;1.60;0.70;;;;;;;;;;4965845;28;20273;-63
2023/02/05 03:26:58;;;;;;;1.30;0.77;;;;;;;;;;4949937;28;20297;-61
2023/02/05 03:29:25;;;;;;;1.42;0.70;;;;;;;;;;4964961;28;20050;-60
2023/02/05 03:31:50;;;;;;;0.93;0.57;;;;;;;;;;4966386;28;20514;-59
2023/02/05 03:34:18;;;;;;;1.10;0.60;;;;;;;;;;4983247;28;20046;-60
2023/02/05 03:36:53;;;;;;;0.95;0.50;;;;;;;;;;4982332;28;20809;-61
2023/02/05 03:39:23;;;;;;;1.50;0.50;;;;;;;;;;4966162;28;20030;-59
2023/02/05 03:41:54;;;;;;;;;;;;;;;;;;4950359;28;20034;-59
2023/02/05 03:44:33;;;;;;;1.30;0.70;;;;;;;;;;4983374;28;19918;-61
2023/02/05 03:47:00;;;;;;;1.02;0.80;;;;;;;;;;4982298;28;20112;-60
2023/02/05 03:49:34;;;;;;;0.98;0.60;;;;;;;;;;4946005;28;20038;-59
2023/02/05 03:52:03;;;;;;;1.00;0.60;;;;;;;;;;4981941;28;20141;-57
2023/02/05 03:54:40;;;;;;;1.13;0.50;;;;;;;;;;4966032;28;20327;-61
2023/02/05 03:57:15;;;;;;;1.10;0.70;;;;;;;;;;4968757;28;20132;-59
2023/02/05 03:59:40;;;;;;;0.75;0.60;;;;;;;;;;4994046;28;20054;-58
2023/02/05 04:02:05;;;;;;;1.30;0.80;;;;;;;;;;4968429;28;20116;-59
2023/02/05 04:04:30;;;;;;;0.82;0.50;;;;;;;;;;4953148;28;20030;-58
2023/02/05 04:06:56;;;;;;;1.23;0.60;;;;;;;;;;4953531;28;20038;-59
2023/02/05 04:09:21;;;;;;;1.08;0.65;;;;;;;;;;4968998;28;20289;-58
2023/02/05 04:11:46;;;;;;;0.98;0.60;;;;;;;;;;4968985;28;20014;-60
2023/02/05 04:14:11;;;;;;;0.88;0.60;;;;;;;;;;4987261;28;20453;-61
2023/02/05 04:16:37;;;;;;;1.05;0.60;;;;;;;;;;4968806;28;20114;-61
2023/02/05 04:19:02;;;;;;;1.23;0.70;;;;;;;;;;4952471;28;20551;-58
2023/02/05 04:21:27;;;;;;;1.35;0.70;;;;;;;;;;4952348;28;20129;-60
2023/02/05 04:23:52;;;;;;;1.10;0.60;;;;;;;;;;4969577;28;20073;-60
2023/02/05 04:26:18;;;;;;;1.00;0.57;;;;;;;;;;4952425;28;21098;-59
2023/02/05 04:28:43;;;;;;;1.38;0.80;;;;;;;;;;4968718;28;20101;-59
2023/02/05 04:31:09;;;;;;;1.00;0.60;;;;;;;;;;4951161;28;20478;-59
2023/02/05 04:33:34;;;;;;;0.88;0.65;;;;;;;;;;4969418;28;20083;-56
2023/02/05 04:35:59;;;;;;;1.03;0.60;;;;;;;;;;4965677;28;20049;-58
2023/02/05 04:38:25;;;;;;;1.38;0.70;;;;;;;;;;4972032;28;20269;-60
2023/02/05 04:40:50;;;;;;;1.45;0.75;;;;;;;;;;5003280;28;20810;-57
2023/02/05 04:43:15;;;;;;;0.80;0.60;;;;;;;;;;5005367;28;20108;-59
2023/02/05 04:45:40;;;;;;;1.30;0.73;;;;;;;;;;4986630;28;20336;-62
2023/02/05 04:48:06;;;;;;;1.23;0.60;;;;;;;;;;4982516;28;20041;-59
2023/02/05 04:50:31;;;;;;;1.20;0.60;;;;;;;;;;4987416;28;20064;-58
2023/02/05 04:52:56;;;;;;;1.10;0.70;;;;;;;;;;4970917;28;20042;-59
2023/02/05 04:55:22;;;;;;;0.80;0.60;;;;;;;;;;4986747;28;20069;-61
2023/02/05 04:57:47;;;;;;;0.80;0.50;;;;;;;;;;5003677;28;20280;-58
2023/02/05 05:00:12;;;;;;;1.38;0.80;;;;;;;;;;4985824;28;20463;-61
2023/02/05 05:02:38;;;;;;;1.40;0.65;;;;;;;;;;5002673;28;20046;-59
2023/02/05 05:05:03;;;;;;;1.42;0.80;;;;;;;;;;4987433;28;20099;-58
2023/02/05 05:07:29;;;;;;;1.35;0.77;;;;;;;;;;4987245;28;20058;-60
2023/02/05 05:09:54;;;;;;;0.95;0.50;;;;;;;;;;4985762;28;20037;-61
2023/02/05 05:12:20;;;;;;;0.85;0.52;;;;;;;;;;4986575;28;20833;-60
2023/02/05 05:14:45;;;;;;;1.60;0.90;;;;;;;;;;4987102;28;20088;-60
2023/02/05 05:17:12;;;;;;;1.00;0.70;;;;;;;;;;5020270;28;20509;-62
2023/02/05 05:19:37;;;;;;;1.02;0.63;;;;;;;;;;4988431;28;20360;-58
2023/02/05 05:22:02;;;;;;;2.00;0.80;;;;;;;;;;4998158;28;20109;-61
2023/02/05 05:24:28;;;;;;;0.95;0.60;;;;;;;;;;4970546;28;20103;-60
2023/02/05 05:26:53;;;;;;;0.88;0.60;;;;;;;;;;4986876;28;20042;-59
2023/02/05 05:29:18;;;;;;;1.00;0.80;;;;;;;;;;4971261;28;20049;-58
2023/02/05 05:31:43;;;;;;;0.90;0.50;;;;;;;;;;4983578;28;20726;-61
2023/02/05 05:34:08;;;;;;;1.67;0.80;;;;;;;;;;4970942;28;20045;-61
2023/02/05 05:36:34;;;;;;;1.13;0.70;;;;;;;;;;4986400;28;20292;-56
2023/02/05 05:43:45;;;;;;;1.97;0.70;;;;;;;;;;4999665;28;20677;-58
2023/02/05 05:44:28;;;;;;;1.50;0.80;;;;;;;;;;5001530;28;20107;-62
2023/02/05 05:46:53;;;;;;;1.88;0.80;;;;;;;;;;4985901;28;20057;-60
2023/02/05 05:49:19;;;;;;;1.57;0.70;;;;;;;;;;5001294;28;20042;-60
2023/02/05 05:51:44;;;;;;;1.65;0.70;;;;;;;;;;4970497;28;20862;-57
2023/02/05 05:54:09;;;;;;;1.93;0.90;;;;;;;;;;4987808;28;20152;-59
2023/02/05 05:56:35;;;;;;;1.67;0.80;;;;;;;;;;5004673;28;20288;-61
2023/02/05 05:59:00;;;;;;;3.28;0.95;;;;;;;;;;5003410;28;21159;-60
2023/02/05 06:01:25;;;;;;;2.25;0.93;;;;;;;;;;4985694;28;20060;-63
2023/02/05 06:03:50;;;;;;;1.60;0.70;;;;;;;;;;5005062;28;20041;-58
2023/02/05 06:06:16;;;;;;;1.67;0.90;;;;;;;;;;5004956;28;20578;-60
2023/02/05 06:08:41;;;;;;;2.45;0.90;;;;;;;;;;4986029;28;20044;-57
2023/02/05 06:11:06;;;;;;;1.77;0.88;;;;;;;;;;4969938;28;20053;-60
2023/02/05 06:13:32;;;;;;;1.93;0.83;;;;;;;;;;4987556;28;20124;-61
2023/02/05 06:15:57;;;;;;;1.23;0.68;;;;;;;;;;4987685;28;20807;-56
2023/02/05 06:18:23;;;;;;;1.97;0.90;;;;;;;;;;4969876;28;20077;-60
2023/02/05 06:20:48;;;;;;;1.45;0.80;;;;;;;;;;5001844;28;20280;-58
2023/02/05 06:23:13;;;;;;;1.10;0.63;;;;;;;;;;4986152;28;20040;-58
2023/02/05 06:25:38;;;;;;;1.52;0.73;;;;;;;;;;4986594;28;20302;-61
2023/02/05 06:28:04;;;;;;;1.33;0.82;;;;;;;;;;4969572;28;20061;-57
2023/02/05 06:30:29;;;;;;;1.33;0.77;;;;;;;;;;4984882;28;20041;-59
2023/02/05 06:32:54;;;;;;;1.80;0.80;;;;;;;;;;4970289;28;20045;-60
2023/02/05 06:35:20;;;;;;;1.93;0.73;;;;;;;;;;4974730;28;20289;-61
2023/02/05 06:37:45;;;;;;;1.37;0.73;;;;;;;;;;4987168;28;20386;-61
2023/02/05 06:40:10;;;;;;;0.87;0.50;;;;;;;;;;5003289;28;20342;-60
2023/02/05 06:42:35;;;;;;;1.23;0.60;;;;;;;;;;4970850;28;20673;-59
2023/02/05 06:45:01;;;;;;;1.27;0.68;;;;;;;;;;5003566;28;20093;-59
2023/02/05 06:47:26;;;;;;;2.92;0.70;;;;;;;;;;5019049;28;20834;-56
2023/02/05 06:49:51;;;;;;;1.90;0.80;;;;;;;;;;5001365;28;20510;-59
2023/02/05 06:52:16;;;;;;;1.80;0.73;;;;;;;;;;5001831;28;20045;-61
2023/02/05 06:54:43;;;;;;;2.55;0.90;;;;;;;;;;4969393;28;20281;-61
2023/02/05 06:57:08;;;;;;;4.57;1.10;;;;;;;;;;4986158;28;20033;-61
2023/02/05 06:59:34;;;;;;;3.55;1.30;;;;;;;;;;4969379;28;20042;-60
2023/02/05 07:01:59;;;;;;;3.60;0.82;;;;;;;;;;4983434;28;20424;-59
2023/02/05 07:04:25;;;;;;;3.90;1.10;;;;;;;;;;4985533;28;20041;-60
2023/02/05 07:06:52;;;;;;;4.30;1.05;;;;;;;;;;4985109;28;20312;-60
2023/02/05 07:09:17;;;;;;;6.60;1.50;;;;;;;;;;4985894;28;20502;-60
2023/02/05 07:11:43;;;;;;;5.47;1.50;;;;;;;;;;4983697;28;20065;-62
2023/02/05 07:14:08;;;;;;;3.15;1.10;;;;;;;;;;4986494;28;20984;-57
2023/02/05 07:16:33;;;;;;;3.33;1.30;;;;;;;;;;4985739;28;20037;-61
2023/02/05 07:18:58;;;;;;;5.67;1.37;;;;;;;;;;5001241;28;20312;-60
2023/02/05 07:21:24;;;;;;;2.53;1.02;;;;;;;;;;4985285;28;20289;-60
2023/02/05 07:23:49;;;;;;;3.43;0.90;;;;;;;;;;4984635;28;20065;-59
2023/02/05 07:26:15;;;;;;;3.70;1.20;;;;;;;;;;4984046;28;20835;-60
2023/02/05 07:28:40;;;;;;;2.85;1.05;;;;;;;;;;4983060;28;20128;-59
2023/02/05 07:31:06;;;;;;;3.50;1.23;;;;;;;;;;4983925;28;20046;-59
2023/02/05 07:33:32;;;;;;;3.58;1.10;;;;;;;;;;4987143;28;20038;-61
2023/02/05 07:35:57;;;;;;;3.60;1.35;;;;;;;;;;5005166;28;20053;-57
2023/02/05 07:38:23;;;;;;;3.83;1.13;;;;;;;;;;5004734;28;20080;-61
2023/02/05 07:40:49;;;;;;;2.30;0.90;;;;;;;;;;4987607;28;20053;-60
2023/02/05 07:43:14;;;;;;;2.88;1.33;;;;;;;;;;5007672;28;20121;-59
2023/02/05 07:45:39;;;;;;;3.20;1.10;;;;;;;;;;5015752;28;20038;-60
2023/02/05 07:48:05;;;;;;;4.60;1.40;;;;;;;;;;4987647;28;20050;-60
2023/02/05 07:50:30;;;;;;;2.90;1.30;;;;;;;;;;4970794;28;20291;-62
2023/02/05 07:52:55;;;;;;;2.90;1.00;;;;;;;;;;4988159;28;20349;-60
2023/02/05 07:55:20;;;;;;;2.60;1.00;;;;;;;;;;5004391;28;20038;-59
2023/02/05 07:57:46;;;;;;;2.17;0.98;;;;;;;;;;5005132;28;20125;-59
2023/02/05 08:00:11;;;;;;;2.17;0.87;;;;;;;;;;4970695;28;20041;-61
2023/02/05 08:02:36;;;;;;;2.60;1.10;;;;;;;;;;5005154;28;20313;-58
2023/02/05 08:05:02;;;;;;;3.72;1.20;;;;;;;;;;4988570;28;20030;-61
2023/02/05 08:07:27;;;;;;;2.83;0.98;;;;;;;;;;4988481;28;20045;-60
2023/02/05 08:09:52;;;;;;;1.90;0.97;;;;;;;;;;4989162;28;20445;-61
2023/02/05 08:12:17;;;;;;;2.50;1.20;;;;;;;;;;4989353;28;20405;-62
2023/02/05 08:14:43;;;;;;;3.30;1.13;;;;;;;;;;4989145;28;20502;-61
2023/02/05 08:17:08;;;;;;;2.97;1.20;;;;;;;;;;4988363;28;20325;-60
2023/02/05 08:19:33;;;;;;;3.30;1.13;;;;;;;;;;5005553;28;20116;-61
2023/02/05 08:21:58;;;;;;;2.97;1.00;;;;;;;;;;4987680;28;20284;-61
2023/02/05 08:24:24;;;;;;;2.43;1.20;;;;;;;;;;5006429;28;20438;-61
2023/02/05 08:26:49;;;;;;;2.35;0.77;;;;;;;;;;4988193;28;20445;-58
2023/02/05 08:29:14;;;;;;;2.67;1.25;;;;;;;;;;5004600;28;20033;-60
2023/02/05 08:31:39;;;;;;;3.85;1.08;;;;;;;;;;5004993;28;20118;-61
2023/02/05 08:34:05;;;;;;;2.00;1.10;;;;;;;;;;4987881;28;20037;-61
2023/02/05 08:36:30;;;;;;;3.92;1.25;;;;;;;;;;4988194;28;20638;-57
2023/02/05 08:38:55;;;;;;;3.30;1.45;;;;;;;;;;4987724;28;20218;-60
2023/02/05 08:41:21;;;;;;;2.10;1.00;;;;;;;;;;4987580;28;20375;-59
2023/02/05 08:43:47;;;;;;;2.75;1.20;;;;;;;;;;5003220;28;20172;-59
2023/02/05 08:46:14;;;;;;;1.85;1.00;;;;;;;;;;5004405;28;20061;-61
2023/02/05 08:48:40;;;;;;;2.83;1.05;;;;;;;;;;4988012;28;20494;-63
2023/02/05 08:51:07;;;;;;;2.90;1.40;;;;;;;;;;5001628;28;20045;-60
2023/02/05 08:53:33;;;;;;;2.20;1.00;;;;;;;;;;4987628;28;20124;-61
2023/02/05 08:55:58;;;;;;;2.58;1.35;;;;;;;;;;4971188;28;20105;-60
2023/02/05 08:58:24;;;;;;;3.75;1.02;;;;;;;;;;4970605;28;20030;-61
2023/02/05 09:00:49;;;;;;;1.90;0.90;;;;;;;;;;4986653;28;20448;-58
2023/02/05 09:03:14;;;;;;;2.03;1.00;;;;;;;;;;4987207;28;20046;-61
2023/02/05 09:05:40;;;;;;;2.17;1.03;;;;;;;;;;4987269;28;20169;-62
2023/02/05 09:08:05;;;;;;;2.50;1.20;;;;;;;;;;4993528;28;20300;-61
2023/02/05 09:10:30;;;;;;;1.60;1.00;;;;;;;;;;4986326;28;20164;-58
2023/02/05 09:12:55;;;;;;;2.93;1.27;;;;;;;;;;4985182;28;20053;-61
2023/02/05 09:15:21;;;;;;;2.20;1.27;;;;;;;;;;4987039;28;20579;-60
2023/02/05 09:17:46;;;;;;;2.13;1.17;;;;;;;;;;4987391;28;20273;-60
2023/02/05 09:20:11;;;;;;;10.95;1.92;;;;;;;;;;4986936;28;20037;-57
2023/02/05 09:22:37;;;;;;;6.65;1.52;;;;;;;;;;5003947;28;20034;-60
2023/02/05 09:25:03;;;;;;;10.75;1.50;;;;;;;;;;5001017;28;20120;-61
2023/02/05 09:27:29;;;;;;;7.43;1.30;;;;;;;;;;4985840;28;20050;-57
2023/02/05 09:29:54;;;;;;;4.63;1.60;;;;;;;;;;5002811;28;20108;-59
2023/02/05 09:32:19;;;;;;;3.92;1.30;;;;;;;;;;4983102;28;20030;-60
2023/02/05 09:34:45;;;;;;;3.78;1.50;;;;;;;;;;4985673;28;20053;-60
2023/02/05 09:37:10;;;;;;;3.97;1.20;;;;;;;;;;4986604;28;20116;-60
2023/02/05 09:39:37;;;;;;;8.52;1.65;;;;;;;;;;4983103;28;20301;-58
2023/02/05 09:42:09;;;;;;;2.83;1.13;;;;;;;;;;4991856;28;20810;-62
2023/02/05 09:44:37;;;;;;;4.80;1.20;;;;;;;;;;4981906;28;20029;-60
2023/02/05 09:47:23;;;;;;;3.17;1.48;;;;;;;;;;4984827;28;20054;-61
2023/02/05 09:50:08;;;;;;;4.75;1.30;;;;;;;;;;4985293;28;20049;-61
2023/02/05 09:52:37;;;;;;;3.58;1.15;;;;;;;;;;4984278;28;20132;-59
2023/02/05 09:55:03;;;;;;;3.60;1.33;;;;;;;;;;4983596;28;20156;-59
2023/02/05 09:57:35;;;;;;;2.95;1.30;;;;;;;;;;4966755;28;20034;-58
2023/02/05 10:00:01;;;;;;;4.40;1.33;;;;;;;;;;4965183;28;20686;-62
2023/02/05 10:02:28;;;;;;;3.80;1.38;;;;;;;;;;4969443;28;20243;-63
2023/02/05 10:04:54;;;;;;;3.15;1.30;;;;;;;;;;4969945;28;20742;-63
2023/02/05 10:07:25;;;;;;;5.20;1.27;;;;;;;;;;5001825;28;20081;-60
2023/02/05 10:09:58;;;;;;;11.32;2.38;;;;;;;;;;4994043;28;20084;-65
2023/02/05 10:12:33;;;;;;;18.88;11.13;;;;;;;;;;4959902;28;20054;-64
2023/02/05 10:15:10;;;;;;;14.38;7.30;;;;;;;;;;4981674;28;20466;-61
2023/02/05 10:17:35;;;;;;;17.08;10.07;;;;;;;;;;4965501;28;20077;-58
2023/02/05 10:20:02;;;;;;;17.33;9.88;;;;;;;;;;4966709;28;20450;-60
2023/02/05 10:22:28;;;;;;;16.88;8.82;;;;;;;;;;4947949;28;20109;-60
2023/02/05 10:24:53;;;;;;;12.30;8.00;;;;;;;;;;4992126;28;20801;-62
2023/02/05 10:27:20;;;;;;;10.93;7.57;;;;;;;;;;4976358;28;20984;-60
2023/02/05 10:29:45;;;;;;;12.85;6.97;;;;;;;;;;4976400;28;20040;-59
2023/02/05 10:32:14;;;;;;;9.60;6.00;;;;;;;;;;4989330;28;20034;-59
2023/02/05 10:34:51;;;;;;;10.50;5.25;;;;;;;;;;4981819;28;20058;-61
2023/02/05 10:37:17;;;;;;;10.38;4.90;;;;;;;;;;4975509;28;20105;-60
2023/02/05 10:39:43;;;;;;;9.82;4.85;;;;;;;;;;4963352;28;20042;-60
2023/02/05 10:42:08;;;;;;;8.73;4.63;;;;;;;;;;4976620;28;20042;-59
2023/02/05 10:44:35;;;;;;;10.07;4.23;;;;;;;;;;4985298;28;20150;-58
2023/02/05 10:47:27;;;;;;;6.85;4.28;;;;;;;;;;4982524;28;20360;-59
2023/02/05 10:49:55;;;;;;;7.70;4.05;;;;;;;;;;4951402;28;20037;-61
2023/02/05 10:52:20;;;;;;;7.30;3.78;;;;;;;;;;4979240;28;20488;-62
2023/02/05 10:54:45;;;;;;;5.83;3.30;;;;;;;;;;4948065;28;20044;-57
2023/02/05 10:57:12;;;;;;;7.45;3.22;;;;;;;;;;4966834;28;20674;-60
2023/02/05 10:59:39;;;;;;;6.38;3.25;;;;;;;;;;4982701;28;20053;-59
2023/02/05 11:02:05;;;;;;;5.93;2.95;;;;;;;;;;4950057;28;20038;-57
2023/02/05 11:04:33;;;;;;;5.63;2.83;;;;;;;;;;4959936;28;20125;-57
2023/02/05 11:06:58;;;;;;;5.90;2.97;;;;;;;;;;4978450;28;20488;-65
2023/02/05 11:09:24;;;;;;;6.05;2.70;;;;;;;;;;4970869;28;20126;-60
2023/02/05 11:11:52;;;;;;;5.93;2.63;;;;;;;;;;4962209;28;20107;-56
2023/02/05 11:14:21;;;;;;;6.68;2.50;;;;;;;;;;4964365;28;20042;-62
2023/02/05 11:16:46;;;;;;;5.97;2.15;;;;;;;;;;4963603;28;20039;-60
2023/02/05 11:19:19;;;;;;;5.07;2.50;;;;;;;;;;4964713;28;20110;-60
2023/02/05 11:21:48;;;;;;;5.18;2.47;;;;;;;;;;4991463;28;20309;-59
2023/02/05 11:24:20;;;;;;;4.40;2.10;;;;;;;;;;4967278;28;20011;-60
2023/02/05 11:26:48;;;;;;;3.83;2.08;;;;;;;;;;4984382;28;21521;-56
2023/02/05 11:29:19;;;;;;;3.95;2.33;;;;;;;;;;4969623;28;20642;-59
2023/02/05 11:31:44;;;;;;;3.88;2.03;;;;;;;;;;4961376;28;20031;-60
2023/02/05 11:34:10;;;;;;;4.53;2.10;;;;;;;;;;4968365;28;20035;-59
2023/02/05 11:36:36;;;;;;;3.72;1.98;;;;;;;;;;4969976;28;20397;-63
2023/02/05 11:39:01;;;;;;;3.75;1.92;;;;;;;;;;4968918;28;20695;-59
2023/02/05 11:41:28;;;;;;;3.42;1.92;;;;;;;;;;4964553;28;20042;-60
2023/02/05 11:43:53;;;;;;;3.10;1.67;;;;;;;;;;4970148;28;20030;-58
2023/02/05 11:46:19;;;;;;;3.92;1.73;;;;;;;;;;4988775;28;20057;-61
2023/02/05 11:48:46;;;;;;;3.88;1.60;;;;;;;;;;4950220;28;20038;-58
2023/02/05 11:51:15;;;;;;;3.60;1.67;;;;;;;;;;4964670;28;20118;-58
2023/02/05 11:53:46;;;;;;;5.25;1.77;;;;;;;;;;4982437;28;20050;-58
2023/02/05 11:56:12;;;;;;;3.47;1.75;;;;;;;;;;4965016;28;20035;-60
2023/02/05 11:58:37;;;;;;;3.60;1.50;;;;;;;;;;4967229;28;20073;-62
2023/02/05 12:01:19;;;;;;;3.13;1.67;;;;;;;;;;4977367;28;20252;-61
2023/02/05 12:03:45;;;;;;;3.25;1.48;;;;;;;;;;4961703;28;20035;-62
2023/02/05 12:06:13;;;;;;;4.72;1.70;;;;;;;;;;4981110;28;20044;-59
2023/02/05 12:08:41;;;;;;;3.10;1.52;;;;;;;;;;4981453;28;20039;-58
2023/02/05 12:11:12;;;;;;;3.17;1.30;;;;;;;;;;4980348;28;20515;-57
2023/02/05 12:13:56;;;;;;;3.55;1.70;;;;;;;;;;4968983;28;20049;-60
2023/02/05 12:16:36;;;;;;;4.07;1.70;;;;;;;;;;4977601;28;20478;-58
2023/02/05 12:19:13;;;;;;;2.40;1.30;;;;;;;;;;4968988;28;20105;-57
2023/02/05 12:21:41;;;;;;;4.10;1.70;;;;;;;;;;4965422;28;20639;-63
2023/02/05 12:24:25;;;;;;;3.47;1.08;;;;;;;;;;4978285;28;20559;-60
2023/02/05 12:26:51;;;;;;;3.15;1.27;;;;;;;;;;4966644;28;20191;-60
2023/02/05 12:29:16;;;;;;;2.75;1.25;;;;;;;;;;4966150;28;20130;-57
2023/02/05 12:32:01;;;;;;;3.00;1.27;;;;;;;;;;4968291;28;20045;-60
2023/02/05 12:34:45;;;;;;;2.65;1.00;;;;;;;;;;4968940;28;20302;-61
2023/02/05 12:37:26;;;;;;;2.25;1.20;;;;;;;;;;5004854;28;20150;-59
2023/02/05 12:39:52;;;;;;;3.05;1.45;;;;;;;;;;4996035;28;20061;-61
2023/02/05 12:42:36;;;;;;;3.15;1.20;;;;;;;;;;4989599;28;20044;-61
2023/02/05 12:45:03;;;;;;;3.15;1.30;;;;;;;;;;4983492;28;20043;-57
2023/02/05 12:47:47;;;;;;;2.53;1.27;;;;;;;;;;4982597;28;20042;-61
2023/02/05 12:50:19;;;;;;;2.80;1.10;;;;;;;;;;4949306;28;20070;-62
2023/02/05 12:52:50;;;;;;;2.53;1.20;;;;;;;;;;4978998;28;20038;-61
2023/02/05 12:55:15;;;;;;;3.00;1.05;;;;;;;;;;4990255;28;20030;-61
2023/02/05 12:57:40;;;;;;;2.47;1.30;;;;;;;;;;4979896;28;20524;-59
2023/02/05 13:00:10;;;;;;;1.90;1.20;;;;;;;;;;4989622;28;20034;-58
2023/02/05 13:02:37;;;;;;;2.55;1.20;;;;;;;;;;4982377;28;20333;-59
2023/02/05 13:05:21;;;;;;;1.98;1.10;;;;;;;;;;4977169;28;20043;-60
2023/02/05 13:07:51;;;;;;;2.55;1.08;;;;;;;;;;4984505;28;20065;-60
2023/02/05 13:10:19;;;;;;;1.77;0.90;;;;;;;;;;4967259;28;20046;-60
2023/02/05 13:12:46;;;;;;;2.55;1.20;;;;;;;;;;4947030;28;20260;-61
2023/02/05 13:15:18;;;;;;;2.85;1.08;;;;;;;;;;4983458;28;20034;-60
2023/02/05 13:17:49;;;;;;;2.50;0.95;;;;;;;;;;4965631;28;20050;-62
2023/02/05 13:20:19;;;;;;;2.17;1.08;;;;;;;;;;4969867;28;20026;-55
2023/02/05 13:28:41;;;;;;;1.90;0.93;;;;;;;;;;4987892;28;20048;-58
2023/02/05 13:31:09;;;;;;;2.20;1.15;;;;;;;;;;5001775;28;20088;-60
2023/02/05 13:33:34;;;;;;;2.88;1.27;;;;;;;;;;5004262;28;20127;-56
2023/02/05 13:36:17;;;;;;;1.83;1.10;;;;;;;;;;5001617;28;20077;-60
2023/02/05 13:38:45;;;;;;;2.10;0.90;;;;;;;;;;4993919;28;20388;-63
2023/02/05 13:41:29;;;;;;;2.22;1.00;;;;;;;;;;4974659;28;20038;-61
2023/02/05 13:43:55;;;;;;;1.33;0.75;;;;;;;;;;4971979;28;20446;-62
2023/02/05 13:46:23;;;;;;;1.63;0.87;;;;;;;;;;4985571;28;20042;-61
2023/02/05 13:48:48;;;;;;;2.03;1.30;;;;;;;;;;4985451;28;20285;-63
2023/02/05 13:51:16;;;;;;;2.73;1.10;;;;;;;;;;4990222;28;20151;-62
2023/02/05 13:53:42;;;;;;;1.90;0.90;;;;;;;;;;4992872;28;20053;-61
2023/02/05 13:56:25;;;;;;;1.60;1.00;;;;;;;;;;4989919;28;20355;-61
2023/02/05 13:58:51;;;;;;;2.40;1.05;;;;;;;;;;5000963;28;20300;-59
2023/02/05 14:01:21;;;;;;;1.95;1.10;;;;;;;;;;5000860;28;20114;-60
2023/02/05 14:03:59;;;;;;;2.47;1.00;;;;;;;;;;5003350;28;20015;-59
2023/02/05 14:06:28;;;;;;;1.70;1.10;;;;;;;;;;4997298;28;20139;-59
2023/02/05 14:09:03;;;;;;;2.03;1.08;;;;;;;;;;5006629;28;20034;-55
2023/02/05 14:11:28;;;;;;;1.52;1.08;;;;;;;;;;4984448;28;20038;-59
2023/02/05 14:14:12;;;;;;;1.60;1.02;;;;;;;;;;4995462;28;20043;-57
2023/02/05 14:16:37;;;;;;;1.50;0.90;;;;;;;;;;4985201;28;20041;-60
2023/02/05 14:19:09;;;;;;;2.20;1.10;;;;;;;;;;4982759;28;20446;-62
2023/02/05 14:21:34;;;;;;;1.80;0.70;;;;;;;;;;4995169;28;20285;-58
2023/02/05 14:24:01;;;;;;;2.37;1.20;;;;;;;;;;5012817;28;20607;-57
2023/02/05 14:26:42;;;;;;;1.80;0.98;;;;;;;;;;4982951;28;20308;-57
2023/02/05 14:29:27;;;;;;;1.30;0.90;;;;;;;;;;4998419;28;20447;-60
2023/02/05 14:31:52;;;;;;;2.05;1.15;;;;;;;;;;4982749;28;20030;-63
2023/02/05 14:34:40;;;;;;;1.77;1.07;;;;;;;;;;4986287;28;20757;-57
2023/02/05 14:37:14;;;;;;;1.80;1.08;;;;;;;;;;4953220;28;20046;-57
2023/02/05 14:39:39;;;;;;;1.48;1.00;;;;;;;;;;4970767;28;20499;-57
2023/02/05 14:42:05;;;;;;;1.57;0.90;;;;;;;;;;4997642;28;20038;-59
2023/02/05 14:44:34;;;;;;;1.85;0.98;;;;;;;;;;4966579;28;20869;-61
2023/02/05 14:47:02;;;;;;;2.05;1.08;;;;;;;;;;4978100;28;20152;-56
2023/02/05 14:49:27;;;;;;;2.17;0.98;;;;;;;;;;4985335;28;20097;-59
2023/02/05 14:51:58;;;;;;;2.00;0.87;;;;;;;;;;5002845;28;20713;-58
2023/02/05 14:54:23;;;;;;;3.92;1.05;;;;;;;;;;4976691;28;20073;-59